createdAt,value
2019-04-10T00:03:04.143Z,77.29
2019-04-10T00:06:16.588Z,76.49
2019-04-10T00:09:28.030Z,77.20
2019-04-10T00:12:36.525Z,77.60
2019-04-10T00:15:44.993Z,77.74
2019-04-10T00:18:53.906Z,78.12
2019-04-10T00:22:04.269Z,77.02
2019-04-10T00:25:13.119Z,77.04
2019-04-10T00:28:23.452Z,76.58
2019-04-10T00:31:33.967Z,77.01
2019-04-10T00:34:44.203Z,76.24
2019-04-10T00:37:53.347Z,76.86
2019-04-10T00:41:01.466Z,80.05
2019-04-10T00:44:09.627Z,78.79
2019-04-10T00:47:17.616Z,76.98
2019-04-10T00:50:26.758Z,78.20
2019-04-10T00:53:35.685Z,78.76
2019-04-10T00:56:45.194Z,78.42
2019-04-10T00:59:54.854Z,77.78
2019-04-10T01:03:03.188Z,76.27
2019-04-10T01:06:11.560Z,77.02
2019-04-10T01:09:21.490Z,76.49
2019-04-10T01:12:30.106Z,76.91
2019-04-10T01:15:38.662Z,76.27
2019-04-10T01:18:47.830Z,75.65
2019-04-10T01:21:56.975Z,77.00
2019-04-10T01:25:06.080Z,76.28
2019-04-10T01:28:14.887Z,74.95
2019-04-10T01:31:23.919Z,75.80
2019-04-10T01:34:35.802Z,76.82
2019-04-10T01:37:49.475Z,77.39
2019-04-10T01:40:55.361Z,78.57
2019-04-10T01:44:03.943Z,76.75
2019-04-10T01:47:15.361Z,77.34
2019-04-10T01:50:24.507Z,77.87
2019-04-10T01:53:33.563Z,77.59
2019-04-10T01:56:42.126Z,77.92
2019-04-10T01:59:50.104Z,77.36
2019-04-10T02:02:58.498Z,77.39
2019-04-10T02:06:07.630Z,78.09
2019-04-10T02:09:16.595Z,78.31
2019-04-10T02:12:24.967Z,78.60
2019-04-10T02:15:35.150Z,80.13
2019-04-10T02:18:43.787Z,80.10
2019-04-10T02:21:51.861Z,80.59
2019-04-10T02:25:00.408Z,79.94
2019-04-10T02:28:09.022Z,79.43
2019-04-10T02:31:19.111Z,80.09
2019-04-10T02:34:28.396Z,80.89
2019-04-10T02:37:39.431Z,79.60
2019-04-10T02:40:49.849Z,80.14
2019-04-10T02:44:00.047Z,83.15
2019-04-10T02:47:08.427Z,80.89
2019-04-10T02:50:18.783Z,80.60
2019-04-10T02:53:29.536Z,80.09
2019-04-10T02:56:39.161Z,80.11
2019-04-10T02:59:47.907Z,80.57
2019-04-10T03:02:59.305Z,80.74
2019-04-10T03:06:09.286Z,80.49
2019-04-10T03:09:36.981Z,79.94
2019-04-10T03:12:32.240Z,80.89
2019-04-10T03:15:40.948Z,82.31
2019-04-10T03:18:50.717Z,79.83
2019-04-10T03:21:59.676Z,80.85
2019-04-10T03:25:09.013Z,80.42
2019-04-10T03:28:16.975Z,83.00
2019-04-10T03:31:27.180Z,81.63
2019-04-10T03:34:38.867Z,82.14
2019-04-10T03:37:46.604Z,81.63
2019-04-10T03:40:55.736Z,81.59
2019-04-10T03:44:04.153Z,80.56
2019-04-10T03:47:13.311Z,81.08
2019-04-10T03:50:21.757Z,80.87
2019-04-10T03:53:30.364Z,81.39
2019-04-10T03:56:38.670Z,81.22
2019-04-10T03:59:50.215Z,82.79
2019-04-10T04:03:06.447Z,84.21
2019-04-10T04:06:16.069Z,83.59
2019-04-10T04:09:29.413Z,84.85
2019-04-10T04:12:44.632Z,84.58
2019-04-10T04:15:56.674Z,86.81
2019-04-10T04:19:10.955Z,85.98
2019-04-10T04:22:20.877Z,84.30
2019-04-10T04:25:30.312Z,84.21
2019-04-10T04:28:40.027Z,82.99
2019-04-10T04:31:51.023Z,83.97
2019-04-10T04:35:02.334Z,82.45
2019-04-10T04:38:16.363Z,84.21
2019-04-10T04:41:35.917Z,89.92
2019-04-10T04:44:49.281Z,91.21
2019-04-10T04:47:57.754Z,87.47
2019-04-10T04:51:08.975Z,87.22
2019-04-10T04:54:19.172Z,89.74
2019-04-10T04:57:28.850Z,88.07
2019-04-10T05:00:37.545Z,87.77
2019-04-10T05:03:48.450Z,87.48
2019-04-10T05:06:59.859Z,86.77
2019-04-10T05:10:11.172Z,86.53
2019-04-10T05:13:22.231Z,86.64
2019-04-10T05:16:31.614Z,86.32
2019-04-10T05:19:40.542Z,86.53
2019-04-10T05:22:52.438Z,84.97
2019-04-10T05:26:02.454Z,86.33
2019-04-10T05:29:13.164Z,85.28
2019-04-10T05:32:22.040Z,85.08
2019-04-10T05:35:31.785Z,88.03
2019-04-10T05:38:41.873Z,89.15
2019-04-10T05:41:50.349Z,87.79
2019-04-10T05:44:58.846Z,90.37
2019-04-10T05:48:06.906Z,91.00
2019-04-10T05:51:19.106Z,91.22
2019-04-10T05:54:31.134Z,92.29
2019-04-10T05:57:39.221Z,93.12
2019-04-10T06:00:47.538Z,91.79
2019-04-10T06:03:56.790Z,91.37
2019-04-10T06:07:05.418Z,92.46
2019-04-10T06:10:15.466Z,92.19
2019-04-10T06:13:24.174Z,91.09
2019-04-10T06:16:34.327Z,89.48
2019-04-10T06:19:42.749Z,90.39
2019-04-10T06:22:51.214Z,90.72
2019-04-10T06:26:00.500Z,91.88
2019-04-10T06:29:08.936Z,89.76
2019-04-10T06:32:17.467Z,91.82
2019-04-10T06:35:26.541Z,91.50
2019-04-10T06:38:35.214Z,89.10
2019-04-10T06:41:44.465Z,87.08
2019-04-10T06:44:52.980Z,89.50
2019-04-10T06:48:02.452Z,88.25
2019-04-10T06:51:12.514Z,89.07
2019-04-10T06:54:20.601Z,88.81
2019-04-10T06:57:30.290Z,89.62
2019-04-10T07:00:39.074Z,89.53
2019-04-10T07:03:56.517Z,88.46
2019-04-10T07:07:06.509Z,88.13
2019-04-10T07:10:22.383Z,86.81
2019-04-10T07:13:22.498Z,86.52
2019-04-10T07:16:32.675Z,85.97
2019-04-10T07:19:45.321Z,86.62
2019-04-10T07:22:55.248Z,84.63
2019-04-10T07:26:03.931Z,85.10
2019-04-10T07:29:15.576Z,84.91
2019-04-10T07:32:24.277Z,84.27
2019-04-10T07:35:35.132Z,83.41
2019-04-10T07:38:43.375Z,84.07
2019-04-10T07:41:51.877Z,83.01
2019-04-10T07:45:00.991Z,82.03
2019-04-10T07:48:09.177Z,82.89
2019-04-10T07:51:19.324Z,81.42
2019-04-10T07:54:28.850Z,81.31
2019-04-10T07:57:36.839Z,79.34
2019-04-10T08:00:44.934Z,79.63
2019-04-10T08:03:55.549Z,79.30
2019-04-10T08:07:05.082Z,79.41
2019-04-10T08:10:13.759Z,79.27
2019-04-10T08:13:22.594Z,77.68
2019-04-10T08:16:34.888Z,77.11
2019-04-10T08:19:43.820Z,77.76
2019-04-10T08:22:53.301Z,77.21
2019-04-10T08:26:01.768Z,77.21
2019-04-10T08:29:09.950Z,74.12
2019-04-10T08:32:18.171Z,76.44
2019-04-10T08:35:26.160Z,76.01
2019-04-10T08:38:35.074Z,75.53
2019-04-10T08:41:43.710Z,76.67
2019-04-10T08:44:54.211Z,76.18
2019-04-10T08:48:01.947Z,77.34
2019-04-10T08:51:27.688Z,75.45
2019-04-10T08:54:38.414Z,74.54
2019-04-10T08:57:50.921Z,75.64
2019-04-10T09:01:00.735Z,74.16
2019-04-10T09:04:11.099Z,73.72
2019-04-10T09:07:20.203Z,72.73
2019-04-10T09:10:30.158Z,73.27
2019-04-10T09:13:40.972Z,73.31
2019-04-10T09:16:49.622Z,74.68
2019-04-10T09:19:58.972Z,75.47
2019-04-10T09:23:19.965Z,74.29
2019-04-10T09:26:17.889Z,75.86
2019-04-10T09:29:30.150Z,73.06
2019-04-10T09:32:39.004Z,71.69
2019-04-10T09:35:50.943Z,72.01
2019-04-10T09:39:00.928Z,71.71
2019-04-10T09:42:11.745Z,71.80
2019-04-10T09:45:21.907Z,69.53
2019-04-10T09:48:31.645Z,70.96
2019-04-10T09:51:40.374Z,71.09
2019-04-10T09:54:53.153Z,72.45
2019-04-10T09:58:02.118Z,69.99
2019-04-10T10:01:14.714Z,71.59
2019-04-10T10:04:22.194Z,69.87
2019-04-10T10:07:34.804Z,70.55
2019-04-10T10:10:42.742Z,70.58
2019-04-10T10:13:52.263Z,69.80
2019-04-10T10:17:00.460Z,70.47
2019-04-10T10:20:11.288Z,69.36
2019-04-10T10:23:20.021Z,68.46
2019-04-10T10:26:30.293Z,69.68
2019-04-10T10:29:38.247Z,68.82
2019-04-10T10:32:46.753Z,67.05
2019-04-10T10:35:57.730Z,67.15
2019-04-10T10:39:12.786Z,68.40
2019-04-10T10:42:21.354Z,68.32
2019-04-10T10:45:32.407Z,67.26
2019-04-10T10:48:40.205Z,66.91
2019-04-10T10:51:48.911Z,67.49
2019-04-10T10:54:57.293Z,69.02
2019-04-10T10:58:07.922Z,67.16
2019-04-10T11:01:18.211Z,67.98
2019-04-10T11:04:27.428Z,67.56
2019-04-10T11:07:36.082Z,67.04
2019-04-10T11:10:49.130Z,66.10
2019-04-10T11:13:55.116Z,66.08
2019-04-10T11:17:03.495Z,64.90
2019-04-10T11:20:13.155Z,66.09
2019-04-10T11:23:22.138Z,66.02
2019-04-10T11:26:33.746Z,67.25
2019-04-10T11:29:42.682Z,66.08
2019-04-10T11:32:50.782Z,64.63
2019-04-10T11:36:00.135Z,64.72
2019-04-10T11:42:21.499Z,64.51
2019-04-10T11:45:39.698Z,63.88
2019-04-10T11:48:45.480Z,64.08
2019-04-10T11:51:55.762Z,62.50
2019-04-10T11:55:13.778Z,62.09
2019-04-10T11:58:17.913Z,62.71
2019-04-10T12:01:31.230Z,62.09
2019-04-10T12:04:52.125Z,59.87
2019-04-10T12:08:18.142Z,60.14
2019-04-10T12:14:11.276Z,58.87
2019-04-10T12:17:20.079Z,59.96
2019-04-10T12:20:29.311Z,59.91
2019-04-10T12:23:38.131Z,59.80
2019-04-10T12:26:47.836Z,56.37
2019-04-10T12:29:57.196Z,59.04
2019-04-10T12:33:07.467Z,58.42
2019-04-10T12:36:15.560Z,55.45
2019-04-10T12:39:24.585Z,58.24
2019-04-10T12:42:34.469Z,57.92
2019-04-10T12:45:42.752Z,58.49
2019-04-10T12:48:52.707Z,56.20
2019-04-10T12:52:02.483Z,57.19
2019-04-10T12:55:12.286Z,54.41
2019-04-10T12:58:21.173Z,53.68
2019-04-10T13:01:33.100Z,54.63
2019-04-10T13:04:41.497Z,54.15
2019-04-10T13:07:49.992Z,54.61
2019-04-10T13:11:00.995Z,53.08
2019-04-10T13:14:09.089Z,54.23
2019-04-10T13:17:20.308Z,52.34
2019-04-10T13:20:33.683Z,53.53
2019-04-10T13:23:42.493Z,49.46
2019-04-10T13:26:50.795Z,51.31
2019-04-10T13:30:00.609Z,52.95
2019-04-10T13:33:10.130Z,53.15
2019-04-10T13:36:19.570Z,52.00
2019-04-10T13:39:30.832Z,53.59
2019-04-10T13:42:39.008Z,52.32
2019-04-10T13:45:48.619Z,50.25
2019-04-10T13:48:59.735Z,48.89
2019-04-10T13:52:09.909Z,51.40
2019-04-10T13:55:19.024Z,52.08
2019-04-10T13:58:28.938Z,49.25
2019-04-10T14:01:39.903Z,50.08
2019-04-10T14:04:49.348Z,49.34
2019-04-10T14:07:58.100Z,49.85
2019-04-10T14:11:06.859Z,48.95
2019-04-10T14:14:16.201Z,50.61
2019-04-10T14:17:25.753Z,50.78
2019-04-10T14:20:35.561Z,51.16
2019-04-10T14:23:45.247Z,49.66
2019-04-10T14:27:14.138Z,51.32
2019-04-10T14:30:33.491Z,49.26
2019-04-10T14:33:41.746Z,51.15
2019-04-10T14:36:49.898Z,50.85
2019-04-10T14:39:59.758Z,48.78
2019-04-10T14:43:08.307Z,51.14
2019-04-10T14:46:17.435Z,48.40
2019-04-10T14:49:27.372Z,49.07
2019-04-10T14:52:36.893Z,48.81
2019-04-10T14:55:45.976Z,48.48
2019-04-10T14:58:54.935Z,50.26
2019-04-10T15:02:04.489Z,49.40
2019-04-10T15:05:14.031Z,48.99
2019-04-10T15:08:22.506Z,50.72
2019-04-10T15:11:34.943Z,49.95
2019-04-10T15:14:44.166Z,52.93
2019-04-10T15:17:52.153Z,49.56
2019-04-10T15:21:02.498Z,50.04
2019-04-10T15:24:11.662Z,49.29
2019-04-10T15:27:22.524Z,50.49
2019-04-10T15:30:31.014Z,49.27
2019-04-10T15:33:39.465Z,50.13
2019-04-10T15:36:49.233Z,50.82
2019-04-10T15:40:09.948Z,48.51
2019-04-10T15:43:08.431Z,49.98
2019-04-10T15:46:19.174Z,51.08
2019-04-10T15:49:30.273Z,49.40
2019-04-10T15:52:38.051Z,49.54
2019-04-10T15:55:47.591Z,48.94
2019-04-10T15:58:56.877Z,49.90
2019-04-10T16:02:06.021Z,49.13
2019-04-10T16:05:15.430Z,48.92
2019-04-10T16:08:29.331Z,50.84
2019-04-10T16:11:52.303Z,50.30
2019-04-10T16:15:00.917Z,49.67
2019-04-10T16:18:15.706Z,50.71
2019-04-10T16:21:27.812Z,50.48
2019-04-10T16:24:36.651Z,49.28
2019-04-10T16:27:45.624Z,52.83
2019-04-10T16:30:55.118Z,49.94
2019-04-10T16:34:03.515Z,49.85
2019-04-10T16:37:15.370Z,49.62
2019-04-10T16:40:23.759Z,51.69
2019-04-10T16:43:32.971Z,50.73
2019-04-10T16:46:42.526Z,51.04
2019-04-10T16:49:53.171Z,51.45
2019-04-10T16:53:01.376Z,50.45
2019-04-10T16:56:11.502Z,50.36
2019-04-10T16:59:19.662Z,51.66
2019-04-10T17:02:28.464Z,51.77
2019-04-10T17:05:38.000Z,51.18
2019-04-10T17:08:46.048Z,51.08
2019-04-10T17:11:54.259Z,54.36
2019-04-10T17:15:03.940Z,52.15
2019-04-10T17:18:13.316Z,51.13
2019-04-10T17:21:29.532Z,51.59
2019-04-10T17:24:37.569Z,52.39
2019-04-10T17:27:45.932Z,52.76
2019-04-10T17:30:54.198Z,53.13
2019-04-10T17:34:02.772Z,52.10
2019-04-10T17:37:11.795Z,54.15
2019-04-10T17:40:31.871Z,53.12
2019-04-10T17:43:34.953Z,53.27
2019-04-10T17:46:43.693Z,53.65
2019-04-10T17:49:54.434Z,54.25
2019-04-10T17:53:02.783Z,54.27
2019-04-10T17:56:11.520Z,55.79
2019-04-10T17:59:20.926Z,55.05
2019-04-10T18:02:28.190Z,54.10
2019-04-10T18:05:35.594Z,54.53
2019-04-10T18:08:43.531Z,55.92
2019-04-10T18:11:50.838Z,56.24
2019-04-10T18:14:59.681Z,56.54
2019-04-10T18:18:07.906Z,55.21
2019-04-10T18:21:16.843Z,56.83
2019-04-10T18:24:28.362Z,57.09
2019-04-10T18:27:36.462Z,57.83
2019-04-10T18:30:46.016Z,58.05
2019-04-10T18:33:55.097Z,56.56
2019-04-10T18:37:05.406Z,56.96
2019-04-10T18:40:12.791Z,58.20
2019-04-10T18:43:24.510Z,55.78
2019-04-10T18:46:32.400Z,58.33
2019-04-10T18:49:43.323Z,56.77
2019-04-10T18:52:51.889Z,56.78
2019-04-10T18:56:00.798Z,56.32
2019-04-10T18:59:14.884Z,56.85
2019-04-10T19:02:32.844Z,59.21
2019-04-10T19:05:45.714Z,57.57
2019-04-10T19:09:07.767Z,58.42
2019-04-10T19:12:04.563Z,58.41
2019-04-10T19:15:20.295Z,59.33
2019-04-10T19:18:28.085Z,57.13
2019-04-10T19:21:35.689Z,56.25
2019-04-10T19:24:44.012Z,58.80
2019-04-10T19:27:51.295Z,58.58
2019-04-10T19:31:12.893Z,59.16
2019-04-10T19:34:10.890Z,57.22
2019-04-10T19:37:18.764Z,59.68
2019-04-10T19:40:25.822Z,57.14
2019-04-10T19:43:33.313Z,58.13
2019-04-10T19:46:43.818Z,58.54
2019-04-10T19:49:53.026Z,58.28
2019-04-10T19:53:00.811Z,59.25
2019-04-10T19:56:09.324Z,59.58
2019-04-10T19:59:18.782Z,59.13
2019-04-10T20:02:26.904Z,58.84
2019-04-10T20:05:34.055Z,61.00
2019-04-10T20:08:41.929Z,61.00
2019-04-10T20:11:53.017Z,59.73
2019-04-10T20:14:59.464Z,60.02
2019-04-10T20:18:08.610Z,59.64
2019-04-10T20:21:19.672Z,60.11
2019-04-10T20:24:29.089Z,61.31
2019-04-10T20:27:38.281Z,60.61
2019-04-10T20:30:49.072Z,60.66
2019-04-10T20:33:59.107Z,61.43
2019-04-10T20:37:09.661Z,61.57
2019-04-10T20:40:18.062Z,61.79
2019-04-10T20:43:30.554Z,62.08
2019-04-10T20:46:38.184Z,62.62
2019-04-10T20:49:46.752Z,61.29
2019-04-10T20:52:55.853Z,62.24
2019-04-10T20:56:06.253Z,62.71
2019-04-10T20:59:17.529Z,62.49
2019-04-10T21:02:28.730Z,62.78
2019-04-10T21:05:37.208Z,62.89
2019-04-10T21:08:47.376Z,62.45
2019-04-10T21:12:02.118Z,62.84
2019-04-10T21:15:08.986Z,63.50
2019-04-10T21:18:23.605Z,63.29
2019-04-10T21:21:32.834Z,64.00
2019-04-10T21:24:41.229Z,63.95
2019-04-10T21:27:51.913Z,64.93
2019-04-10T21:31:22.261Z,64.51
2019-04-10T21:34:39.832Z,64.60
2019-04-10T21:37:48.702Z,65.01
2019-04-10T21:40:57.386Z,64.80
2019-04-10T21:44:06.426Z,64.95
2019-04-10T21:47:17.351Z,64.77
2019-04-10T21:50:25.124Z,65.27
2019-04-10T21:53:34.447Z,65.41
2019-04-10T21:56:45.124Z,65.14
2019-04-10T21:59:53.847Z,65.47
2019-04-10T22:03:02.825Z,65.17
2019-04-10T22:06:38.200Z,65.44
2019-04-10T22:10:05.580Z,65.77
2019-04-10T22:13:15.729Z,67.55
2019-04-10T22:16:26.559Z,68.31
2019-04-10T22:19:35.727Z,72.32
2019-04-10T22:22:45.002Z,71.16
2019-04-10T22:25:54.309Z,67.87
2019-04-10T22:29:03.602Z,67.12
2019-04-10T22:32:12.415Z,67.17
2019-04-10T22:35:23.872Z,66.82
2019-04-10T22:38:32.206Z,66.72
2019-04-10T22:41:40.680Z,66.83
2019-04-10T22:44:49.777Z,67.22
2019-04-10T22:47:58.602Z,66.75
2019-04-10T22:51:08.407Z,67.42
2019-04-10T22:54:19.852Z,66.97
2019-04-10T22:57:31.383Z,67.17
2019-04-10T23:00:40.053Z,67.23
2019-04-10T23:03:49.415Z,67.23
2019-04-10T23:06:58.072Z,67.26
2019-04-10T23:10:06.704Z,66.98
2019-04-10T23:13:15.992Z,67.63
2019-04-10T23:16:26.152Z,67.32
2019-04-10T23:19:34.813Z,68.09
2019-04-10T23:22:43.217Z,67.71
2019-04-10T23:25:51.473Z,68.02
2019-04-10T23:28:59.989Z,68.36
2019-04-10T23:32:08.404Z,68.50
2019-04-10T23:35:17.160Z,68.06
2019-04-10T23:38:25.754Z,67.93
2019-04-10T23:41:34.215Z,68.42
2019-04-10T23:44:42.935Z,68.84
2019-04-10T23:47:50.948Z,68.92
2019-04-10T23:51:00.761Z,68.76
2019-04-10T23:54:11.179Z,69.69
2019-04-10T23:57:21.209Z,69.54
